sensor_id;sensor_type;location;lat;lon;timestamp;P1;durP1;ratioP1;P2;durP2;ratioP2
71083;SDS011;58741;52.672;13.548;2023-07-02T00:00:55;0.30;;;0.30;;
71083;SDS011;58741;52.672;13.548;2023-07-02T00:03:21;0.40;;;0.40;;
71083;SDS011;58741;52.672;13.548;2023-07-02T00:05:47;0.50;;;0.50;;
71083;SDS011;58741;52.672;13.548;2023-07-02T00:08:15;0.50;;;0.40;;
71083;SDS011;58741;52.672;13.548;2023-07-02T00:10:40;0.85;;;0.52;;
71083;SDS011;58741;52.672;13.548;2023-07-02T00:13:06;0.57;;;0.50;;
71083;SDS011;58741;52.672;13.548;2023-07-02T00:15:32;0.30;;;0.30;;
71083;SDS011;58741;52.672;13.548;2023-07-02T00:17:57;0.25;;;0.25;;
71083;SDS011;58741;52.672;13.548;2023-07-02T00:20:23;0.95;;;0.55;;
71083;SDS011;58741;52.672;13.548;2023-07-02T00:22:49;0.80;;;0.60;;
71083;SDS011;58741;52.672;13.548;2023-07-02T00:25:15;0.52;;;0.52;;
71083;SDS011;58741;52.672;13.548;2023-07-02T00:27:41;0.40;;;0.40;;
71083;SDS011;58741;52.672;13.548;2023-07-02T00:30:07;0.40;;;0.40;;
71083;SDS011;58741;52.672;13.548;2023-07-02T00:32:33;0.73;;;0.70;;
71083;SDS011;58741;52.672;13.548;2023-07-02T00:34:59;0.68;;;0.40;;
71083;SDS011;58741;52.672;13.548;2023-07-02T00:37:24;0.68;;;0.68;;
71083;SDS011;58741;52.672;13.548;2023-07-02T00:39:50;0.50;;;0.50;;
71083;SDS011;58741;52.672;13.548;2023-07-02T00:42:17;0.60;;;0.60;;
71083;SDS011;58741;52.672;13.548;2023-07-02T00:44:43;1.58;;;0.57;;
71083;SDS011;58741;52.672;13.548;2023-07-02T00:47:09;0.60;;;0.60;;
71083;SDS011;58741;52.672;13.548;2023-07-02T00:49:35;0.57;;;0.35;;
71083;SDS011;58741;52.672;13.548;2023-07-02T00:52:01;1.08;;;0.70;;
71083;SDS011;58741;52.672;13.548;2023-07-02T00:54:27;1.13;;;0.85;;
71083;SDS011;58741;52.672;13.548;2023-07-02T00:56:54;1.27;;;0.77;;
71083;SDS011;58741;52.672;13.548;2023-07-02T00:59:19;3.15;;;0.70;;
71083;SDS011;58741;52.672;13.548;2023-07-02T01:01:45;0.88;;;0.70;;
71083;SDS011;58741;52.672;13.548;2023-07-02T01:04:16;1.20;;;0.63;;
71083;SDS011;58741;52.672;13.548;2023-07-02T01:06:43;1.05;;;0.75;;
71083;SDS011;58741;52.672;13.548;2023-07-02T01:09:09;0.60;;;0.60;;
71083;SDS011;58741;52.672;13.548;2023-07-02T01:11:43;0.88;;;0.75;;
71083;SDS011;58741;52.672;13.548;2023-07-02T01:17:02;0.40;;;0.40;;
71083;SDS011;58741;52.672;13.548;2023-07-02T01:19:44;1.83;;;0.73;;
71083;SDS011;58741;52.672;13.548;2023-07-02T01:22:11;0.77;;;0.60;;
71083;SDS011;58741;52.672;13.548;2023-07-02T01:24:40;1.17;;;0.68;;
71083;SDS011;58741;52.672;13.548;2023-07-02T01:27:06;5.40;;;0.73;;
71083;SDS011;58741;52.672;13.548;2023-07-02T01:29:32;1.15;;;0.70;;
71083;SDS011;58741;52.672;13.548;2023-07-02T01:32:01;0.50;;;0.50;;
71083;SDS011;58741;52.672;13.548;2023-07-02T01:34:27;0.82;;;0.60;;
71083;SDS011;58741;52.672;13.548;2023-07-02T01:36:53;0.85;;;0.68;;
71083;SDS011;58741;52.672;13.548;2023-07-02T01:39:18;3.38;;;1.08;;
71083;SDS011;58741;52.672;13.548;2023-07-02T01:41:45;1.08;;;0.98;;
71083;SDS011;58741;52.672;13.548;2023-07-02T01:44:14;1.58;;;0.80;;
71083;SDS011;58741;52.672;13.548;2023-07-02T01:46:39;1.08;;;0.98;;
71083;SDS011;58741;52.672;13.548;2023-07-02T01:49:05;0.93;;;0.85;;
71083;SDS011;58741;52.672;13.548;2023-07-02T01:51:30;0.77;;;0.73;;
71083;SDS011;58741;52.672;13.548;2023-07-02T01:53:56;1.00;;;0.90;;
71083;SDS011;58741;52.672;13.548;2023-07-02T01:56:22;0.75;;;0.70;;
71083;SDS011;58741;52.672;13.548;2023-07-02T01:58:47;1.20;;;1.10;;
71083;SDS011;58741;52.672;13.548;2023-07-02T02:01:13;1.13;;;0.90;;
71083;SDS011;58741;52.672;13.548;2023-07-02T02:03:38;1.25;;;0.88;;
71083;SDS011;58741;52.672;13.548;2023-07-02T02:06:04;1.17;;;1.08;;
71083;SDS011;58741;52.672;13.548;2023-07-02T02:08:30;0.82;;;0.82;;
71083;SDS011;58741;52.672;13.548;2023-07-02T02:10:55;1.73;;;1.08;;
71083;SDS011;58741;52.672;13.548;2023-07-02T02:13:21;1.23;;;1.13;;
71083;SDS011;58741;52.672;13.548;2023-07-02T02:15:47;1.75;;;1.02;;
71083;SDS011;58741;52.672;13.548;2023-07-02T02:18:13;2.22;;;0.98;;
71083;SDS011;58741;52.672;13.548;2023-07-02T02:20:39;2.35;;;1.02;;
71083;SDS011;58741;52.672;13.548;2023-07-02T02:23:06;1.00;;;0.88;;
71083;SDS011;58741;52.672;13.548;2023-07-02T02:25:31;1.15;;;0.85;;
71083;SDS011;58741;52.672;13.548;2023-07-02T02:27:57;1.25;;;1.02;;
71083;SDS011;58741;52.672;13.548;2023-07-02T02:30:23;0.70;;;0.70;;
71083;SDS011;58741;52.672;13.548;2023-07-02T02:32:49;0.80;;;0.80;;
71083;SDS011;58741;52.672;13.548;2023-07-02T02:35:15;1.02;;;0.80;;
71083;SDS011;58741;52.672;13.548;2023-07-02T02:37:40;5.18;;;1.65;;
71083;SDS011;58741;52.672;13.548;2023-07-02T02:40:07;1.00;;;0.88;;
71083;SDS011;58741;52.672;13.548;2023-07-02T02:42:38;1.40;;;1.20;;
71083;SDS011;58741;52.672;13.548;2023-07-02T02:45:04;1.20;;;0.95;;
71083;SDS011;58741;52.672;13.548;2023-07-02T02:47:30;1.95;;;1.60;;
71083;SDS011;58741;52.672;13.548;2023-07-02T02:49:55;1.83;;;1.55;;
71083;SDS011;58741;52.672;13.548;2023-07-02T02:52:21;2.72;;;1.83;;
71083;SDS011;58741;52.672;13.548;2023-07-02T02:54:47;2.08;;;1.50;;
71083;SDS011;58741;52.672;13.548;2023-07-02T02:57:12;3.88;;;1.10;;
71083;SDS011;58741;52.672;13.548;2023-07-02T02:59:38;3.05;;;1.60;;
71083;SDS011;58741;52.672;13.548;2023-07-02T03:02:04;1.33;;;1.15;;
71083;SDS011;58741;52.672;13.548;2023-07-02T03:04:30;2.75;;;1.60;;
71083;SDS011;58741;52.672;13.548;2023-07-02T03:06:55;3.63;;;1.63;;
71083;SDS011;58741;52.672;13.548;2023-07-02T03:09:21;1.17;;;0.90;;
71083;SDS011;58741;52.672;13.548;2023-07-02T03:11:47;1.80;;;1.42;;
71083;SDS011;58741;52.672;13.548;2023-07-02T03:14:13;1.77;;;1.15;;
71083;SDS011;58741;52.672;13.548;2023-07-02T03:16:40;1.33;;;1.23;;
71083;SDS011;58741;52.672;13.548;2023-07-02T03:19:06;1.65;;;1.40;;
71083;SDS011;58741;52.672;13.548;2023-07-02T03:21:32;7.22;;;1.33;;
71083;SDS011;58741;52.672;13.548;2023-07-02T03:23:57;1.40;;;1.30;;
71083;SDS011;58741;52.672;13.548;2023-07-02T03:26:23;1.70;;;1.60;;
71083;SDS011;58741;52.672;13.548;2023-07-02T03:28:49;1.10;;;0.95;;
71083;SDS011;58741;52.672;13.548;2023-07-02T03:31:14;2.10;;;1.40;;
71083;SDS011;58741;52.672;13.548;2023-07-02T03:33:40;6.03;;;1.50;;
71083;SDS011;58741;52.672;13.548;2023-07-02T03:36:06;4.10;;;1.58;;
71083;SDS011;58741;52.672;13.548;2023-07-02T03:38:31;1.63;;;1.30;;
71083;SDS011;58741;52.672;13.548;2023-07-02T03:40:57;2.35;;;1.48;;
71083;SDS011;58741;52.672;13.548;2023-07-02T03:43:23;1.50;;;1.10;;
71083;SDS011;58741;52.672;13.548;2023-07-02T03:45:51;1.77;;;1.42;;
71083;SDS011;58741;52.672;13.548;2023-07-02T03:48:17;1.88;;;1.17;;
71083;SDS011;58741;52.672;13.548;2023-07-02T03:50:43;1.60;;;1.00;;
71083;SDS011;58741;52.672;13.548;2023-07-02T03:53:08;1.05;;;1.00;;
71083;SDS011;58741;52.672;13.548;2023-07-02T03:55:35;2.35;;;1.27;;
71083;SDS011;58741;52.672;13.548;2023-07-02T03:58:00;1.50;;;1.23;;
71083;SDS011;58741;52.672;13.548;2023-07-02T04:00:26;2.45;;;1.08;;
71083;SDS011;58741;52.672;13.548;2023-07-02T04:02:51;2.97;;;1.25;;
71083;SDS011;58741;52.672;13.548;2023-07-02T04:05:17;2.85;;;1.45;;
71083;SDS011;58741;52.672;13.548;2023-07-02T04:07:42;2.17;;;1.85;;
71083;SDS011;58741;52.672;13.548;2023-07-02T04:10:08;1.98;;;1.40;;
71083;SDS011;58741;52.672;13.548;2023-07-02T04:12:34;7.50;;;1.70;;
71083;SDS011;58741;52.672;13.548;2023-07-02T04:14:59;2.28;;;1.30;;
71083;SDS011;58741;52.672;13.548;2023-07-02T04:17:25;1.88;;;1.40;;
71083;SDS011;58741;52.672;13.548;2023-07-02T04:19:53;1.55;;;1.35;;
71083;SDS011;58741;52.672;13.548;2023-07-02T04:22:20;1.17;;;1.08;;
71083;SDS011;58741;52.672;13.548;2023-07-02T04:24:46;1.10;;;1.00;;
71083;SDS011;58741;52.672;13.548;2023-07-02T04:27:14;1.27;;;1.10;;
71083;SDS011;58741;52.672;13.548;2023-07-02T04:29:42;3.05;;;1.10;;
71083;SDS011;58741;52.672;13.548;2023-07-02T04:32:08;1.30;;;1.20;;
71083;SDS011;58741;52.672;13.548;2023-07-02T04:34:34;1.40;;;1.23;;
71083;SDS011;58741;52.672;13.548;2023-07-02T04:37:01;1.35;;;1.25;;
71083;SDS011;58741;52.672;13.548;2023-07-02T04:39:28;1.80;;;1.27;;
71083;SDS011;58741;52.672;13.548;2023-07-02T04:41:54;1.73;;;1.27;;
71083;SDS011;58741;52.672;13.548;2023-07-02T04:44:19;1.42;;;0.80;;
71083;SDS011;58741;52.672;13.548;2023-07-02T04:46:55;9.00;;;0.98;;
71083;SDS011;58741;52.672;13.548;2023-07-02T04:49:22;0.95;;;0.95;;
71083;SDS011;58741;52.672;13.548;2023-07-02T04:51:48;0.75;;;0.70;;
71083;SDS011;58741;52.672;13.548;2023-07-02T04:54:13;1.40;;;0.98;;
71083;SDS011;58741;52.672;13.548;2023-07-02T04:56:39;1.10;;;0.80;;
71083;SDS011;58741;52.672;13.548;2023-07-02T04:59:04;1.73;;;1.17;;
71083;SDS011;58741;52.672;13.548;2023-07-02T05:01:30;1.42;;;0.90;;
71083;SDS011;58741;52.672;13.548;2023-07-02T05:03:55;1.10;;;1.00;;
71083;SDS011;58741;52.672;13.548;2023-07-02T05:06:21;1.65;;;1.40;;
71083;SDS011;58741;52.672;13.548;2023-07-02T05:08:46;1.90;;;1.15;;
71083;SDS011;58741;52.672;13.548;2023-07-02T05:11:12;1.35;;;1.25;;
71083;SDS011;58741;52.672;13.548;2023-07-02T05:13:37;1.45;;;1.05;;
71083;SDS011;58741;52.672;13.548;2023-07-02T05:16:03;2.10;;;1.08;;
71083;SDS011;58741;52.672;13.548;2023-07-02T05:18:29;3.05;;;1.80;;
71083;SDS011;58741;52.672;13.548;2023-07-02T05:20:54;1.05;;;0.90;;
71083;SDS011;58741;52.672;13.548;2023-07-02T05:23:20;1.30;;;1.10;;
71083;SDS011;58741;52.672;13.548;2023-07-02T05:25:45;1.23;;;1.02;;
71083;SDS011;58741;52.672;13.548;2023-07-02T05:28:11;1.90;;;1.00;;
71083;SDS011;58741;52.672;13.548;2023-07-02T05:30:37;1.85;;;1.02;;
71083;SDS011;58741;52.672;13.548;2023-07-02T05:33:02;8.98;;;1.95;;
71083;SDS011;58741;52.672;13.548;2023-07-02T05:35:28;1.42;;;1.33;;
71083;SDS011;58741;52.672;13.548;2023-07-02T05:37:53;1.08;;;1.00;;
71083;SDS011;58741;52.672;13.548;2023-07-02T05:40:19;3.80;;;1.73;;
71083;SDS011;58741;52.672;13.548;2023-07-02T05:42:44;1.90;;;1.38;;
71083;SDS011;58741;52.672;13.548;2023-07-02T05:45:10;1.08;;;0.90;;
71083;SDS011;58741;52.672;13.548;2023-07-02T05:47:36;0.82;;;0.70;;
71083;SDS011;58741;52.672;13.548;2023-07-02T05:50:01;0.95;;;0.73;;
71083;SDS011;58741;52.672;13.548;2023-07-02T05:52:27;1.05;;;0.90;;
71083;SDS011;58741;52.672;13.548;2023-07-02T05:54:52;1.42;;;1.00;;
71083;SDS011;58741;52.672;13.548;2023-07-02T05:57:18;1.60;;;1.23;;
71083;SDS011;58741;52.672;13.548;2023-07-02T05:59:43;1.67;;;1.05;;
71083;SDS011;58741;52.672;13.548;2023-07-02T06:02:09;2.72;;;1.05;;
71083;SDS011;58741;52.672;13.548;2023-07-02T06:04:34;1.00;;;0.90;;
71083;SDS011;58741;52.672;13.548;2023-07-02T06:07:00;2.25;;;1.27;;
71083;SDS011;58741;52.672;13.548;2023-07-02T06:09:26;2.42;;;1.20;;
71083;SDS011;58741;52.672;13.548;2023-07-02T06:11:52;2.00;;;1.23;;
71083;SDS011;58741;52.672;13.548;2023-07-02T06:14:17;1.65;;;0.98;;
71083;SDS011;58741;52.672;13.548;2023-07-02T06:16:43;7.13;;;1.17;;
71083;SDS011;58741;52.672;13.548;2023-07-02T06:19:08;1.27;;;1.17;;
71083;SDS011;58741;52.672;13.548;2023-07-02T06:21:34;0.50;;;0.50;;
71083;SDS011;58741;52.672;13.548;2023-07-02T06:24:01;3.15;;;0.70;;
71083;SDS011;58741;52.672;13.548;2023-07-02T06:26:27;1.20;;;0.70;;
71083;SDS011;58741;52.672;13.548;2023-07-02T06:28:52;1.35;;;0.93;;
71083;SDS011;58741;52.672;13.548;2023-07-02T06:31:18;0.98;;;0.88;;
71083;SDS011;58741;52.672;13.548;2023-07-02T06:33:44;1.38;;;0.88;;
71083;SDS011;58741;52.672;13.548;2023-07-02T06:36:09;1.60;;;1.00;;
71083;SDS011;58741;52.672;13.548;2023-07-02T06:38:35;1.25;;;1.15;;
71083;SDS011;58741;52.672;13.548;2023-07-02T06:41:01;1.65;;;1.33;;
71083;SDS011;58741;52.672;13.548;2023-07-02T06:43:28;1.67;;;1.08;;
71083;SDS011;58741;52.672;13.548;2023-07-02T06:45:53;0.77;;;0.70;;
71083;SDS011;58741;52.672;13.548;2023-07-02T06:48:19;1.73;;;1.17;;
71083;SDS011;58741;52.672;13.548;2023-07-02T06:50:46;2.20;;;1.15;;
71083;SDS011;58741;52.672;13.548;2023-07-02T06:53:12;3.13;;;1.20;;
71083;SDS011;58741;52.672;13.548;2023-07-02T06:55:37;3.15;;;0.88;;
71083;SDS011;58741;52.672;13.548;2023-07-02T06:58:06;0.80;;;0.70;;
71083;SDS011;58741;52.672;13.548;2023-07-02T07:00:33;1.42;;;1.00;;
71083;SDS011;58741;52.672;13.548;2023-07-02T07:03:02;2.92;;;1.10;;
71083;SDS011;58741;52.672;13.548;2023-07-02T07:05:31;2.95;;;1.00;;
71083;SDS011;58741;52.672;13.548;2023-07-02T07:07:57;1.05;;;0.90;;
71083;SDS011;58741;52.672;13.548;2023-07-02T07:10:23;1.52;;;1.10;;
71083;SDS011;58741;52.672;13.548;2023-07-02T07:12:49;0.60;;;0.60;;
71083;SDS011;58741;52.672;13.548;2023-07-02T07:15:15;1.77;;;1.00;;
71083;SDS011;58741;52.672;13.548;2023-07-02T07:17:40;3.03;;;0.90;;
71083;SDS011;58741;52.672;13.548;2023-07-02T07:20:06;2.28;;;1.27;;
71083;SDS011;58741;52.672;13.548;2023-07-02T07:22:33;1.75;;;1.10;;
71083;SDS011;58741;52.672;13.548;2023-07-02T07:24:59;0.80;;;0.73;;
71083;SDS011;58741;52.672;13.548;2023-07-02T07:27:25;2.05;;;1.13;;
71083;SDS011;58741;52.672;13.548;2023-07-02T07:29:50;1.90;;;1.23;;
71083;SDS011;58741;52.672;13.548;2023-07-02T07:32:16;1.83;;;1.15;;
71083;SDS011;58741;52.672;13.548;2023-07-02T07:34:42;0.95;;;0.75;;
71083;SDS011;58741;52.672;13.548;2023-07-02T07:37:07;1.00;;;0.90;;
71083;SDS011;58741;52.672;13.548;2023-07-02T07:39:33;2.72;;;1.00;;
71083;SDS011;58741;52.672;13.548;2023-07-02T07:41:58;2.42;;;1.45;;
71083;SDS011;58741;52.672;13.548;2023-07-02T07:44:24;0.98;;;0.95;;
71083;SDS011;58741;52.672;13.548;2023-07-02T07:46:54;1.30;;;1.00;;
71083;SDS011;58741;52.672;13.548;2023-07-02T07:49:21;1.23;;;0.85;;
71083;SDS011;58741;52.672;13.548;2023-07-02T07:51:46;2.78;;;1.35;;
71083;SDS011;58741;52.672;13.548;2023-07-02T07:54:12;1.77;;;1.20;;
71083;SDS011;58741;52.672;13.548;2023-07-02T07:56:38;2.60;;;1.10;;
71083;SDS011;58741;52.672;13.548;2023-07-02T07:59:04;1.20;;;0.90;;
71083;SDS011;58741;52.672;13.548;2023-07-02T08:01:29;2.42;;;1.40;;
71083;SDS011;58741;52.672;13.548;2023-07-02T08:03:55;4.53;;;1.60;;
71083;SDS011;58741;52.672;13.548;2023-07-02T08:06:21;1.40;;;1.05;;
71083;SDS011;58741;52.672;13.548;2023-07-02T08:08:46;1.67;;;1.17;;
71083;SDS011;58741;52.672;13.548;2023-07-02T08:11:12;1.77;;;1.10;;
71083;SDS011;58741;52.672;13.548;2023-07-02T08:13:38;1.42;;;0.80;;
71083;SDS011;58741;52.672;13.548;2023-07-02T08:16:03;1.40;;;1.05;;
71083;SDS011;58741;52.672;13.548;2023-07-02T08:18:29;3.60;;;1.30;;
71083;SDS011;58741;52.672;13.548;2023-07-02T08:20:55;3.20;;;1.38;;
71083;SDS011;58741;52.672;13.548;2023-07-02T08:23:20;1.13;;;0.98;;
71083;SDS011;58741;52.672;13.548;2023-07-02T08:25:46;6.90;;;1.30;;
71083;SDS011;58741;52.672;13.548;2023-07-02T08:28:11;3.80;;;0.80;;
71083;SDS011;58741;52.672;13.548;2023-07-02T08:30:37;2.78;;;1.33;;
71083;SDS011;58741;52.672;13.548;2023-07-02T08:33:02;5.55;;;1.17;;
71083;SDS011;58741;52.672;13.548;2023-07-02T08:35:28;1.80;;;1.42;;
71083;SDS011;58741;52.672;13.548;2023-07-02T08:37:54;2.33;;;1.58;;
71083;SDS011;58741;52.672;13.548;2023-07-02T08:40:19;2.95;;;1.20;;
71083;SDS011;58741;52.672;13.548;2023-07-02T08:42:45;3.67;;;1.25;;
71083;SDS011;58741;52.672;13.548;2023-07-02T08:45:14;2.30;;;1.05;;
71083;SDS011;58741;52.672;13.548;2023-07-02T08:47:41;1.50;;;1.30;;
71083;SDS011;58741;52.672;13.548;2023-07-02T08:50:08;2.78;;;1.00;;
71083;SDS011;58741;52.672;13.548;2023-07-02T08:52:34;2.80;;;0.90;;
71083;SDS011;58741;52.672;13.548;2023-07-02T08:54:59;1.30;;;0.93;;
71083;SDS011;58741;52.672;13.548;2023-07-02T08:57:25;2.00;;;1.00;;
71083;SDS011;58741;52.672;13.548;2023-07-02T08:59:50;0.90;;;0.77;;
71083;SDS011;58741;52.672;13.548;2023-07-02T09:02:17;6.53;;;1.45;;
71083;SDS011;58741;52.672;13.548;2023-07-02T09:04:42;2.60;;;1.20;;
71083;SDS011;58741;52.672;13.548;2023-07-02T09:07:08;1.50;;;1.10;;
71083;SDS011;58741;52.672;13.548;2023-07-02T09:09:45;8.52;;;1.38;;
71083;SDS011;58741;52.672;13.548;2023-07-02T09:12:24;2.33;;;1.25;;
71083;SDS011;58741;52.672;13.548;2023-07-02T09:14:54;0.80;;;0.80;;
71083;SDS011;58741;52.672;13.548;2023-07-02T09:17:21;1.98;;;1.20;;
71083;SDS011;58741;52.672;13.548;2023-07-02T09:19:51;4.93;;;1.42;;
71083;SDS011;58741;52.672;13.548;2023-07-02T09:22:17;1.38;;;1.02;;
71083;SDS011;58741;52.672;13.548;2023-07-02T09:24:50;0.88;;;0.82;;
71083;SDS011;58741;52.672;13.548;2023-07-02T09:27:18;1.48;;;1.00;;
71083;SDS011;58741;52.672;13.548;2023-07-02T09:29:49;2.03;;;1.17;;
71083;SDS011;58741;52.672;13.548;2023-07-02T09:32:23;2.92;;;1.45;;
71083;SDS011;58741;52.672;13.548;2023-07-02T09:34:51;4.13;;;1.70;;
71083;SDS011;58741;52.672;13.548;2023-07-02T09:37:19;2.53;;;1.33;;
71083;SDS011;58741;52.672;13.548;2023-07-02T09:39:44;1.33;;;1.10;;
71083;SDS011;58741;52.672;13.548;2023-07-02T09:42:15;1.90;;;1.23;;
71083;SDS011;58741;52.672;13.548;2023-07-02T09:44:44;3.60;;;1.50;;
71083;SDS011;58741;52.672;13.548;2023-07-02T09:47:11;2.08;;;1.23;;
71083;SDS011;58741;52.672;13.548;2023-07-02T09:49:38;2.55;;;1.50;;
71083;SDS011;58741;52.672;13.548;2023-07-02T09:52:07;1.67;;;1.20;;
71083;SDS011;58741;52.672;13.548;2023-07-02T09:54:36;8.02;;;1.90;;
71083;SDS011;58741;52.672;13.548;2023-07-02T09:57:03;3.83;;;1.77;;
71083;SDS011;58741;52.672;13.548;2023-07-02T09:59:29;4.80;;;2.20;;
71083;SDS011;58741;52.672;13.548;2023-07-02T10:01:55;1.95;;;1.23;;
71083;SDS011;58741;52.672;13.548;2023-07-02T10:04:21;1.15;;;1.05;;
71083;SDS011;58741;52.672;13.548;2023-07-02T10:06:53;2.38;;;1.25;;
71083;SDS011;58741;52.672;13.548;2023-07-02T10:09:34;2.58;;;1.35;;
71083;SDS011;58741;52.672;13.548;2023-07-02T10:12:17;2.90;;;1.63;;
71083;SDS011;58741;52.672;13.548;2023-07-02T10:14:48;2.30;;;1.33;;
71083;SDS011;58741;52.672;13.548;2023-07-02T10:19:58;2.25;;;1.77;;
71083;SDS011;58741;52.672;13.548;2023-07-02T10:22:25;3.78;;;1.75;;
71083;SDS011;58741;52.672;13.548;2023-07-02T10:24:58;1.80;;;1.40;;
71083;SDS011;58741;52.672;13.548;2023-07-02T10:27:33;1.90;;;1.48;;
71083;SDS011;58741;52.672;13.548;2023-07-02T10:29:59;3.63;;;1.60;;
71083;SDS011;58741;52.672;13.548;2023-07-02T10:32:25;4.00;;;1.77;;
71083;SDS011;58741;52.672;13.548;2023-07-02T10:34:53;4.70;;;1.88;;
71083;SDS011;58741;52.672;13.548;2023-07-02T10:37:19;8.38;;;1.83;;
71083;SDS011;58741;52.672;13.548;2023-07-02T10:39:45;3.03;;;1.90;;
71083;SDS011;58741;52.672;13.548;2023-07-02T10:42:10;1.90;;;1.17;;
71083;SDS011;58741;52.672;13.548;2023-07-02T10:44:51;1.77;;;1.50;;
71083;SDS011;58741;52.672;13.548;2023-07-02T10:47:18;4.80;;;1.85;;
71083;SDS011;58741;52.672;13.548;2023-07-02T10:49:44;2.33;;;1.75;;
71083;SDS011;58741;52.672;13.548;2023-07-02T10:52:10;3.30;;;2.22;;
71083;SDS011;58741;52.672;13.548;2023-07-02T10:54:39;3.58;;;2.00;;
71083;SDS011;58741;52.672;13.548;2023-07-02T10:57:08;8.23;;;2.30;;
71083;SDS011;58741;52.672;13.548;2023-07-02T10:59:34;4.80;;;2.17;;
71083;SDS011;58741;52.672;13.548;2023-07-02T11:02:00;4.43;;;2.25;;
71083;SDS011;58741;52.672;13.548;2023-07-02T11:04:28;3.25;;;2.15;;
71083;SDS011;58741;52.672;13.548;2023-07-02T11:06:55;3.75;;;1.88;;
71083;SDS011;58741;52.672;13.548;2023-07-02T11:09:20;4.82;;;2.28;;
71083;SDS011;58741;52.672;13.548;2023-07-02T11:12:04;5.15;;;2.53;;
71083;SDS011;58741;52.672;13.548;2023-07-02T11:14:34;3.15;;;1.95;;
71083;SDS011;58741;52.672;13.548;2023-07-02T11:17:04;4.85;;;2.25;;
71083;SDS011;58741;52.672;13.548;2023-07-02T11:19:32;3.53;;;1.88;;
71083;SDS011;58741;52.672;13.548;2023-07-02T11:21:58;2.95;;;2.28;;
71083;SDS011;58741;52.672;13.548;2023-07-02T11:26:58;6.93;;;2.65;;
71083;SDS011;58741;52.672;13.548;2023-07-02T11:29:24;4.95;;;2.20;;
71083;SDS011;58741;52.672;13.548;2023-07-02T11:31:50;3.65;;;2.25;;
71083;SDS011;58741;52.672;13.548;2023-07-02T11:34:17;2.88;;;2.13;;
71083;SDS011;58741;52.672;13.548;2023-07-02T11:36:44;6.95;;;2.17;;
71083;SDS011;58741;52.672;13.548;2023-07-02T11:39:10;6.15;;;2.45;;
71083;SDS011;58741;52.672;13.548;2023-07-02T11:41:40;3.83;;;2.10;;
71083;SDS011;58741;52.672;13.548;2023-07-02T11:44:10;4.68;;;1.95;;
71083;SDS011;58741;52.672;13.548;2023-07-02T11:46:37;7.70;;;2.78;;
71083;SDS011;58741;52.672;13.548;2023-07-02T11:49:03;8.55;;;2.70;;
71083;SDS011;58741;52.672;13.548;2023-07-02T11:51:30;4.95;;;2.03;;
71083;SDS011;58741;52.672;13.548;2023-07-02T11:53:56;5.30;;;2.45;;
71083;SDS011;58741;52.672;13.548;2023-07-02T11:56:22;11.40;;;2.60;;
71083;SDS011;58741;52.672;13.548;2023-07-02T11:58:48;5.55;;;2.35;;
71083;SDS011;58741;52.672;13.548;2023-07-02T12:01:14;4.10;;;2.33;;
71083;SDS011;58741;52.672;13.548;2023-07-02T12:03:39;4.38;;;2.75;;
71083;SDS011;58741;52.672;13.548;2023-07-02T12:06:05;4.63;;;2.22;;
71083;SDS011;58741;52.672;13.548;2023-07-02T12:08:31;9.27;;;2.60;;
71083;SDS011;58741;52.672;13.548;2023-07-02T12:10:56;6.45;;;2.20;;
71083;SDS011;58741;52.672;13.548;2023-07-02T12:13:22;3.83;;;2.33;;
71083;SDS011;58741;52.672;13.548;2023-07-02T12:15:47;4.50;;;2.40;;
71083;SDS011;58741;52.672;13.548;2023-07-02T12:18:14;7.10;;;2.40;;
71083;SDS011;58741;52.672;13.548;2023-07-02T12:20:40;5.13;;;2.17;;
71083;SDS011;58741;52.672;13.548;2023-07-02T12:23:06;3.75;;;1.90;;
71083;SDS011;58741;52.672;13.548;2023-07-02T12:25:32;3.03;;;2.05;;
71083;SDS011;58741;52.672;13.548;2023-07-02T12:27:57;8.55;;;2.10;;
71083;SDS011;58741;52.672;13.548;2023-07-02T12:30:23;3.50;;;1.73;;
71083;SDS011;58741;52.672;13.548;2023-07-02T12:32:48;5.35;;;2.10;;
71083;SDS011;58741;52.672;13.548;2023-07-02T12:35:14;3.20;;;2.15;;
71083;SDS011;58741;52.672;13.548;2023-07-02T12:37:43;7.20;;;2.70;;
71083;SDS011;58741;52.672;13.548;2023-07-02T12:40:10;3.35;;;2.20;;
71083;SDS011;58741;52.672;13.548;2023-07-02T12:42:36;7.47;;;2.53;;
71083;SDS011;58741;52.672;13.548;2023-07-02T12:45:02;3.15;;;2.10;;
71083;SDS011;58741;52.672;13.548;2023-07-02T12:47:28;4.68;;;2.70;;
71083;SDS011;58741;52.672;13.548;2023-07-02T12:49:54;6.90;;;2.03;;
71083;SDS011;58741;52.672;13.548;2023-07-02T12:52:19;3.28;;;2.17;;
71083;SDS011;58741;52.672;13.548;2023-07-02T12:54:45;5.57;;;2.00;;
71083;SDS011;58741;52.672;13.548;2023-07-02T12:57:10;4.22;;;1.83;;
71083;SDS011;58741;52.672;13.548;2023-07-02T12:59:36;6.20;;;2.58;;
71083;SDS011;58741;52.672;13.548;2023-07-02T13:02:01;5.13;;;2.75;;
71083;SDS011;58741;52.672;13.548;2023-07-02T13:04:27;7.40;;;2.58;;
71083;SDS011;58741;52.672;13.548;2023-07-02T13:06:53;9.75;;;2.30;;
71083;SDS011;58741;52.672;13.548;2023-07-02T13:09:18;3.03;;;2.00;;
71083;SDS011;58741;52.672;13.548;2023-07-02T13:11:44;6.75;;;2.60;;
71083;SDS011;58741;52.672;13.548;2023-07-02T13:14:09;17.40;;;2.35;;
71083;SDS011;58741;52.672;13.548;2023-07-02T13:16:35;8.85;;;2.47;;
71083;SDS011;58741;52.672;13.548;2023-07-02T13:19:01;3.20;;;1.52;;
71083;SDS011;58741;52.672;13.548;2023-07-02T13:21:27;3.75;;;2.50;;
71083;SDS011;58741;52.672;13.548;2023-07-02T13:23:53;4.32;;;2.03;;
71083;SDS011;58741;52.672;13.548;2023-07-02T13:26:19;4.97;;;2.80;;
71083;SDS011;58741;52.672;13.548;2023-07-02T13:28:45;6.72;;;3.13;;
71083;SDS011;58741;52.672;13.548;2023-07-02T13:31:13;11.15;;;2.17;;
71083;SDS011;58741;52.672;13.548;2023-07-02T13:33:39;3.22;;;2.03;;
71083;SDS011;58741;52.672;13.548;2023-07-02T13:36:05;5.30;;;2.28;;
71083;SDS011;58741;52.672;13.548;2023-07-02T13:38:31;5.82;;;2.45;;
71083;SDS011;58741;52.672;13.548;2023-07-02T13:40:57;4.03;;;2.45;;
71083;SDS011;58741;52.672;13.548;2023-07-02T13:43:23;3.80;;;2.60;;
71083;SDS011;58741;52.672;13.548;2023-07-02T13:45:48;5.18;;;2.33;;
71083;SDS011;58741;52.672;13.548;2023-07-02T13:48:14;4.50;;;2.28;;
71083;SDS011;58741;52.672;13.548;2023-07-02T13:50:39;5.03;;;2.53;;
71083;SDS011;58741;52.672;13.548;2023-07-02T13:53:05;7.65;;;2.58;;
71083;SDS011;58741;52.672;13.548;2023-07-02T13:55:31;6.50;;;2.67;;
71083;SDS011;58741;52.672;13.548;2023-07-02T13:57:56;4.03;;;2.17;;
71083;SDS011;58741;52.672;13.548;2023-07-02T14:00:25;5.13;;;2.50;;
71083;SDS011;58741;52.672;13.548;2023-07-02T14:02:52;3.28;;;2.17;;
71083;SDS011;58741;52.672;13.548;2023-07-02T14:05:18;4.32;;;3.05;;
71083;SDS011;58741;52.672;13.548;2023-07-02T14:07:44;3.85;;;2.42;;
71083;SDS011;58741;52.672;13.548;2023-07-02T14:10:10;5.10;;;2.50;;
71083;SDS011;58741;52.672;13.548;2023-07-02T14:12:37;4.18;;;2.22;;
71083;SDS011;58741;52.672;13.548;2023-07-02T14:15:04;6.60;;;3.33;;
71083;SDS011;58741;52.672;13.548;2023-07-02T14:17:30;3.10;;;2.20;;
71083;SDS011;58741;52.672;13.548;2023-07-02T14:19:55;5.18;;;2.05;;
71083;SDS011;58741;52.672;13.548;2023-07-02T14:22:21;11.23;;;2.05;;
71083;SDS011;58741;52.672;13.548;2023-07-02T14:24:47;6.80;;;2.22;;
71083;SDS011;58741;52.672;13.548;2023-07-02T14:27:12;6.65;;;1.80;;
71083;SDS011;58741;52.672;13.548;2023-07-02T14:29:38;6.35;;;2.17;;
71083;SDS011;58741;52.672;13.548;2023-07-02T14:32:04;3.22;;;1.92;;
71083;SDS011;58741;52.672;13.548;2023-07-02T14:34:30;5.43;;;2.05;;
71083;SDS011;58741;52.672;13.548;2023-07-02T14:36:56;3.63;;;1.60;;